Time;durP1;ratioP1;P1;durP2;ratioP2;P2;SDS_P1;SDS_P2;PMS_P1;PMS_P2;Temp;Humidity;BMP_temperature;BMP_pressure;BME280_temperature;BME280_humidity;BME280_pressure;Samples;Min_cycle;Max_cycle;Signal;HPM_P1;HPM_P2
2023/01/28 00:02:07;;;;;;;8.53;8.10;;;3.50;99.90;;;;;;5072348;28;20217;-64
2023/01/28 00:04:33;;;;;;;7.97;7.67;;;3.50;99.90;;;;;;5064526;28;20660;-64
2023/01/28 00:06:58;;;;;;;8.87;8.37;;;3.50;99.90;;;;;;5052418;28;20237;-64
2023/01/28 00:09:24;;;;;;;9.43;8.83;;;3.40;99.90;;;;;;5058930;28;20170;-65
2023/01/28 00:11:50;;;;;;;7.60;7.30;;;3.40;99.90;;;;;;5074769;28;20233;-64
2023/01/28 00:14:16;;;;;;;9.20;8.30;;;3.30;99.90;;;;;;5071940;28;20290;-64
2023/01/28 00:16:41;;;;;;;7.83;7.47;;;3.20;99.90;;;;;;5053233;28;20214;-63
2023/01/28 00:19:07;;;;;;;7.77;7.37;;;3.20;99.90;;;;;;5052031;28;20167;-63
2023/01/28 00:21:33;;;;;;;7.00;6.70;;;3.10;99.90;;;;;;5051939;28;20250;-64
2023/01/28 00:23:59;;;;;;;7.20;6.80;;;3.00;99.90;;;;;;5052324;28;20167;-64
2023/01/28 00:26:24;;;;;;;6.43;6.13;;;2.80;99.90;;;;;;5051634;28;20167;-63
2023/01/28 00:28:50;;;;;;;6.70;6.40;;;2.70;99.90;;;;;;5051956;28;20615;-64
2023/01/28 00:31:22;;;;;;;6.83;6.50;;;2.50;99.90;;;;;;5069857;28;20174;-61
2023/01/28 00:33:49;;;;;;;8.27;7.73;;;2.40;99.90;;;;;;5061782;28;20198;-62
2023/01/28 00:36:16;;;;;;;8.30;7.83;;;2.20;99.90;;;;;;5051500;28;20171;-62
2023/01/28 00:38:41;;;;;;;7.90;7.50;;;2.10;99.90;;;;;;5059424;28;20611;-64
2023/01/28 00:41:13;;;;;;;8.37;7.87;;;2.00;99.90;;;;;;5071338;28;20194;-64
2023/01/28 00:43:39;;;;;;;7.93;7.63;;;1.90;99.90;;;;;;5058932;28;20544;-64
2023/01/28 00:46:07;;;;;;;8.00;7.70;;;1.80;99.90;;;;;;5051662;28;20672;-63
2023/01/28 00:48:33;;;;;;;7.70;7.40;;;1.80;99.90;;;;;;5062515;28;20178;-64
2023/01/28 00:50:59;;;;;;;9.03;8.53;;;1.70;99.90;;;;;;5071301;28;20256;-64
2023/01/28 00:53:24;;;;;;;7.37;7.07;;;1.60;99.90;;;;;;5061791;28;20801;-64
2023/01/28 00:55:50;;;;;;;8.93;8.47;;;1.60;99.90;;;;;;5051524;28;20228;-64
2023/01/28 00:58:16;;;;;;;7.60;7.30;;;1.50;99.90;;;;;;5058658;28;20244;-64
2023/01/28 01:00:41;;;;;;;7.83;7.47;;;1.50;99.90;;;;;;5071261;28;20223;-64
2023/01/28 01:03:07;;;;;;;8.47;8.07;;;1.40;99.90;;;;;;5070497;28;20189;-64
2023/01/28 01:05:33;;;;;;;8.73;8.33;;;1.30;99.90;;;;;;5071400;28;20176;-62
2023/01/28 01:07:59;;;;;;;8.60;8.20;;;1.40;99.90;;;;;;5067079;28;20199;-63
2023/01/28 01:10:24;;;;;;;7.77;7.40;;;1.40;99.90;;;;;;5052570;28;20205;-63
2023/01/28 01:12:50;;;;;;;7.73;7.33;;;1.40;99.90;;;;;;5071448;28;20297;-63
2023/01/28 01:15:17;;;;;;;8.87;8.47;;;1.50;99.90;;;;;;5069745;28;20170;-63
2023/01/28 01:17:46;;;;;;;9.17;8.77;;;1.50;99.90;;;;;;5071334;28;20189;-63
2023/01/28 01:20:25;;;;;;;9.77;9.27;;;1.60;99.90;;;;;;5069782;28;20170;-63
2023/01/28 01:22:51;;;;;;;9.13;8.70;;;1.70;99.90;;;;;;5051394;28;20166;-63
2023/01/28 01:25:17;;;;;;;9.03;8.53;;;1.70;99.90;;;;;;5052134;28;20173;-63
2023/01/28 01:27:47;;;;;;;9.63;9.13;;;1.80;99.90;;;;;;5071332;28;20193;-64
2023/01/28 01:30:13;;;;;;;8.53;8.13;;;1.90;99.90;;;;;;5070525;28;20246;-63
2023/01/28 01:32:39;;;;;;;9.63;9.13;;;2.00;99.90;;;;;;5031231;28;20203;-63
2023/01/28 01:35:06;;;;;;;9.00;8.50;;;2.00;99.90;;;;;;5031296;28;20168;-63
2023/01/28 01:37:32;;;;;;;9.33;8.73;;;2.10;99.90;;;;;;5068482;28;20190;-64
2023/01/28 01:39:57;;;;;;;10.57;10.07;;;2.20;99.90;;;;;;5056237;28;20175;-63
2023/01/28 01:42:24;;;;;;;9.27;8.87;;;2.20;99.90;;;;;;5051191;28;20175;-63
2023/01/28 01:45:06;;;;;;;9.63;9.10;;;2.30;99.90;;;;;;5063782;28;20182;-64
2023/01/28 01:47:46;;;;;;;9.20;8.57;;;2.30;99.90;;;;;;5070998;28;20560;-64
2023/01/28 01:50:23;;;;;;;11.10;10.50;;;2.40;99.90;;;;;;5055206;28;20262;-63
2023/01/28 01:52:52;;;;;;;13.20;12.60;;;2.40;99.90;;;;;;5054464;28;20621;-64
2023/01/28 01:55:22;;;;;;;12.70;11.97;;;2.40;99.90;;;;;;5070074;28;20213;-63
2023/01/28 01:57:51;;;;;;;12.40;11.70;;;2.40;99.90;;;;;;5075033;28;20671;-63
2023/01/28 02:00:17;;;;;;;11.97;11.17;;;2.50;99.90;;;;;;5059189;28;20578;-64
2023/01/28 02:02:46;;;;;;;10.47;9.97;;;2.50;99.90;;;;;;5054730;28;20175;-64
2023/01/28 02:05:14;;;;;;;9.13;8.63;;;2.50;99.90;;;;;;5067912;28;20660;-63
2023/01/28 02:07:41;;;;;;;9.77;9.27;;;2.50;99.90;;;;;;5061171;28;20325;-63
2023/01/28 02:10:09;;;;;;;10.43;9.63;;;2.50;99.90;;;;;;5054376;28;20175;-64
2023/01/28 02:12:38;;;;;;;10.07;9.47;;;2.40;99.90;;;;;;5073358;28;20459;-63
2023/01/28 02:15:16;;;;;;;9.43;8.87;;;2.40;99.90;;;;;;5074661;28;20166;-64
2023/01/28 02:17:42;;;;;;;10.27;9.67;;;2.40;99.90;;;;;;5054317;28;20217;-63
2023/01/28 02:20:10;;;;;;;10.30;9.57;;;2.40;99.90;;;;;;5054277;28;20186;-64
2023/01/28 02:23:21;;;;;;;10.37;9.67;;;2.30;99.90;;;;;;5073150;28;20186;-63
2023/01/28 02:26:05;;;;;;;10.00;9.50;;;2.40;99.90;;;;;;5059767;28;20240;-64
2023/01/28 02:28:32;;;;;;;9.60;9.10;;;2.40;99.90;;;;;;5054161;28;20199;-63
2023/01/28 02:31:02;;;;;;;10.30;9.60;;;2.40;99.90;;;;;;5058441;28;20178;-64
2023/01/28 02:34:01;;;;;;;10.20;9.60;;;2.40;99.90;;;;;;5073845;28;20549;-63
2023/01/28 02:36:35;;;;;;;9.83;9.37;;;2.40;99.90;;;;;;5055408;28;20198;-63
2023/01/28 02:39:11;;;;;;;10.30;9.53;;;2.50;99.90;;;;;;5054063;28;20527;-63
2023/01/28 02:41:49;;;;;;;8.83;8.33;;;2.40;99.90;;;;;;5072444;28;20651;-63
2023/01/28 02:44:14;;;;;;;10.03;9.40;;;2.40;99.90;;;;;;5073821;28;20187;-63
2023/01/28 02:49:29;;;;;;;9.33;8.83;;;2.40;99.90;;;;;;5053525;28;20228;-63
2023/01/28 02:52:04;;;;;;;10.23;9.63;;;2.40;99.90;;;;;;5053670;28;20221;-63
2023/01/28 02:54:49;;;;;;;11.20;10.43;;;2.40;99.90;;;;;;5053462;28;20571;-63
2023/01/28 02:57:32;;;;;;;9.67;9.17;;;2.40;99.90;;;;;;5073606;28;20190;-63
2023/01/28 03:00:07;;;;;;;9.87;9.17;;;2.40;99.90;;;;;;5070331;28;20452;-64
2023/01/28 03:02:44;;;;;;;9.33;8.83;;;2.40;99.90;;;;;;5054784;28;20174;-63
2023/01/28 03:05:34;;;;;;;9.30;8.90;;;2.40;99.90;;;;;;5067256;28;20186;-63
2023/01/28 03:09:21;;;;;;;9.73;9.13;;;2.40;99.90;;;;;;5058693;28;20208;-63
2023/01/28 03:36:49;;;;;;;9.27;8.63;;;2.40;99.90;;;;;;5052897;28;20560;-63
2023/01/28 03:39:26;;;;;;;9.63;8.93;;;2.40;99.90;;;;;;5066704;28;20249;-63
2023/01/28 03:42:10;;;;;;;9.83;9.27;;;2.40;99.90;;;;;;5072828;28;20180;-63
2023/01/28 03:44:49;;;;;;;9.67;9.07;;;2.40;99.90;;;;;;5055665;28;20652;-64
2023/01/28 03:47:15;;;;;;;10.10;9.30;;;2.40;99.90;;;;;;5052684;28;20194;-63
2023/01/28 03:49:49;;;;;;;8.27;7.87;;;2.40;99.90;;;;;;5068930;28;20593;-63
2023/01/28 03:52:17;;;;;;;8.70;8.00;;;2.40;99.90;;;;;;5072292;28;20190;-64
2023/01/28 03:54:47;;;;;;;7.80;7.40;;;2.40;99.90;;;;;;5055851;28;20175;-63
2023/01/28 03:57:17;;;;;;;8.43;8.03;;;2.40;99.90;;;;;;5052446;28;20542;-63
2023/01/28 03:59:42;;;;;;;9.20;8.60;;;2.50;99.90;;;;;;5067879;28;20174;-63
2023/01/28 04:02:09;;;;;;;7.77;7.37;;;2.50;99.90;;;;;;5058525;28;20672;-63
2023/01/28 04:04:39;;;;;;;6.70;6.40;;;2.50;99.90;;;;;;5052400;28;20171;-63
2023/01/28 04:07:07;;;;;;;8.43;7.93;;;2.50;99.90;;;;;;5064742;28;20559;-63
2023/01/28 04:09:36;;;;;;;8.33;7.87;;;2.50;99.90;;;;;;5071879;28;20182;-63
2023/01/28 04:12:02;;;;;;;8.10;7.70;;;2.50;99.90;;;;;;5060625;28;20710;-63
2023/01/28 04:14:29;;;;;;;8.07;7.60;;;2.50;99.90;;;;;;5051074;28;20286;-64
2023/01/28 04:16:54;;;;;;;9.00;8.30;;;2.40;99.90;;;;;;5058394;28;20703;-63
2023/01/28 04:19:20;;;;;;;12.77;9.50;;;2.50;99.90;;;;;;5057723;28;20198;-63
2023/01/28 04:21:46;;;;;;;13.43;9.83;;;2.50;99.90;;;;;;5052060;28;20175;-63
2023/01/28 04:24:12;;;;;;;9.80;9.00;;;2.50;99.90;;;;;;5052155;28;20170;-63
2023/01/28 04:26:38;;;;;;;11.10;10.10;;;2.50;99.90;;;;;;5069228;28;20208;-63
2023/01/28 04:29:04;;;;;;;9.27;8.47;;;2.50;99.90;;;;;;5067279;28;20192;-63
2023/01/28 04:31:29;;;;;;;9.77;8.90;;;2.50;99.90;;;;;;5051728;28;20642;-63
2023/01/28 04:33:55;;;;;;;10.70;9.67;;;2.50;99.90;;;;;;5054476;28;20210;-64
2023/01/28 04:36:20;;;;;;;10.60;9.63;;;2.50;99.90;;;;;;5071597;28;20174;-63
2023/01/28 04:38:46;;;;;;;11.17;10.17;;;2.50;99.90;;;;;;5070695;28;20166;-64
2023/01/28 04:41:12;;;;;;;10.70;9.53;;;2.50;99.90;;;;;;5051485;28;20739;-63
2023/01/28 04:43:37;;;;;;;10.20;9.43;;;2.50;99.90;;;;;;5051746;28;20174;-64
2023/01/28 04:46:03;;;;;;;10.57;9.77;;;2.50;99.90;;;;;;5078947;28;20178;-63
2023/01/28 04:48:30;;;;;;;12.93;10.37;;;2.50;99.90;;;;;;5080130;28;20612;-64
2023/01/28 04:50:55;;;;;;;10.27;9.70;;;2.40;99.90;;;;;;5061171;28;20533;-63
2023/01/28 04:53:21;;;;;;;12.63;11.53;;;2.40;99.90;;;;;;5051665;28;20202;-63
2023/01/28 04:55:47;;;;;;;11.73;10.77;;;2.40;99.90;;;;;;5067549;28;20209;-63
2023/01/28 04:58:12;;;;;;;8.90;8.30;;;2.40;99.90;;;;;;5057677;28;20603;-63
2023/01/28 05:00:38;;;;;;;11.00;10.20;;;2.40;99.90;;;;;;5050958;28;20214;-64
2023/01/28 05:03:04;;;;;;;12.03;10.60;;;2.40;99.90;;;;;;5063564;28;20543;-63
2023/01/28 05:05:29;;;;;;;11.27;10.10;;;2.40;99.90;;;;;;5071211;28;20225;-63
2023/01/28 05:07:56;;;;;;;11.27;10.47;;;2.30;99.90;;;;;;5060974;28;20217;-63
2023/01/28 05:10:22;;;;;;;11.60;10.67;;;2.30;99.90;;;;;;5050901;28;20179;-63
2023/01/28 05:12:48;;;;;;;11.37;10.20;;;2.30;99.90;;;;;;5059890;28;20205;-63
2023/01/28 05:15:15;;;;;;;12.10;10.93;;;2.30;99.90;;;;;;5071357;28;20178;-63
2023/01/28 05:17:42;;;;;;;10.40;9.63;;;2.30;99.90;;;;;;5063905;28;20195;-63
2023/01/28 05:20:08;;;;;;;13.00;11.90;;;2.30;99.90;;;;;;5052442;28;20171;-63
2023/01/28 05:22:33;;;;;;;9.40;8.90;;;2.30;99.90;;;;;;5071325;28;20178;-63
2023/01/28 05:24:59;;;;;;;11.37;10.33;;;2.30;99.90;;;;;;5068437;28;20193;-63
2023/01/28 05:27:25;;;;;;;10.50;9.80;;;2.30;99.90;;;;;;5055245;28;20293;-63
2023/01/28 05:29:50;;;;;;;12.07;10.77;;;2.30;99.90;;;;;;5056676;28;20181;-63
2023/01/28 05:32:16;;;;;;;10.13;9.43;;;2.30;99.90;;;;;;5075148;28;20182;-64
2023/01/28 05:34:41;;;;;;;10.17;9.43;;;2.30;99.90;;;;;;5074844;28;20174;-64
2023/01/28 05:37:07;;;;;;;9.50;8.73;;;2.20;99.90;;;;;;5055284;28;20199;-63
2023/01/28 05:39:33;;;;;;;11.37;10.57;;;2.20;99.90;;;;;;5054865;28;20175;-63
2023/01/28 05:41:58;;;;;;;9.90;9.37;;;2.30;99.90;;;;;;5073243;28;20653;-63
2023/01/28 05:44:24;;;;;;;10.70;9.63;;;2.30;99.90;;;;;;5074848;28;20178;-64
2023/01/28 05:46:49;;;;;;;9.87;9.17;;;2.30;99.90;;;;;;5058284;28;20203;-64
2023/01/28 05:49:15;;;;;;;9.40;8.70;;;2.30;99.90;;;;;;5071455;28;20296;-63
2023/01/28 05:51:41;;;;;;;9.83;9.10;;;2.30;99.90;;;;;;5059967;28;20201;-64
2023/01/28 05:54:07;;;;;;;9.90;8.80;;;2.40;99.90;;;;;;5067052;28;20279;-64
2023/01/28 05:56:35;;;;;;;12.53;8.73;;;2.30;99.90;;;;;;5074587;28;20650;-64
2023/01/28 05:59:02;;;;;;;10.57;9.67;;;2.30;99.90;;;;;;5063638;28;20225;-64
2023/01/28 06:01:28;;;;;;;13.40;11.40;;;2.30;99.90;;;;;;5054467;28;20175;-64
2023/01/28 06:03:53;;;;;;;9.60;8.83;;;2.30;99.90;;;;;;5064059;28;20184;-64
2023/01/28 06:06:19;;;;;;;9.70;9.07;;;2.30;99.90;;;;;;5073247;28;20705;-63
2023/01/28 06:08:44;;;;;;;9.67;9.00;;;2.30;99.90;;;;;;5066653;28;20229;-64
2023/01/28 06:11:10;;;;;;;9.90;9.03;;;2.30;99.90;;;;;;5054294;28;20185;-64
2023/01/28 06:13:36;;;;;;;9.07;8.47;;;2.20;99.90;;;;;;5060300;28;20205;-64
2023/01/28 06:16:02;;;;;;;8.10;7.63;;;2.20;99.90;;;;;;5074493;28;20610;-64
2023/01/28 06:18:28;;;;;;;12.23;8.93;;;2.20;99.90;;;;;;5069420;28;20672;-64
2023/01/28 06:20:53;;;;;;;11.53;10.37;;;2.20;99.90;;;;;;5056055;28;20182;-64
2023/01/28 06:23:19;;;;;;;9.03;8.20;;;2.30;99.90;;;;;;5074607;28;20182;-64
2023/01/28 06:25:45;;;;;;;9.50;8.90;;;2.20;99.90;;;;;;5059475;28;20217;-64
2023/01/28 06:28:11;;;;;;;9.57;8.77;;;2.20;99.90;;;;;;5054257;28;20282;-64
2023/01/28 06:30:36;;;;;;;9.33;8.73;;;2.30;99.90;;;;;;5066229;28;20189;-64
2023/01/28 06:33:02;;;;;;;9.83;9.13;;;2.20;99.90;;;;;;5074051;28;20264;-64
2023/01/28 06:35:28;;;;;;;8.90;8.23;;;2.20;99.90;;;;;;5062875;28;20309;-63
2023/01/28 06:37:53;;;;;;;9.93;9.23;;;2.20;99.90;;;;;;5053371;28;20209;-64
2023/01/28 06:40:21;;;;;;;9.57;8.83;;;2.20;99.90;;;;;;5062642;28;20273;-64
2023/01/28 06:42:47;;;;;;;9.03;8.40;;;2.20;99.90;;;;;;5073952;28;20229;-64
2023/01/28 06:45:13;;;;;;;10.13;9.13;;;2.30;99.90;;;;;;5065763;28;20183;-64
2023/01/28 06:47:39;;;;;;;10.47;9.37;;;2.30;99.90;;;;;;5053885;28;20205;-63
2023/01/28 06:50:05;;;;;;;9.67;8.70;;;2.30;99.90;;;;;;5065189;28;20572;-64
2023/01/28 06:52:31;;;;;;;10.27;9.37;;;2.30;99.90;;;;;;5073412;28;20190;-63
2023/01/28 06:54:56;;;;;;;9.97;9.17;;;2.30;99.90;;;;;;5063447;28;20171;-64
2023/01/28 06:57:22;;;;;;;8.70;8.20;;;2.20;99.90;;;;;;5053532;28;20186;-63
2023/01/28 06:59:48;;;;;;;9.13;8.40;;;2.20;99.90;;;;;;5057094;28;20217;-63
2023/01/28 07:02:13;;;;;;;9.30;8.70;;;2.20;99.90;;;;;;5053816;28;20178;-64
2023/01/28 07:04:39;;;;;;;10.03;9.10;;;2.10;99.90;;;;;;5064976;28;20186;-64
2023/01/28 07:07:05;;;;;;;9.67;9.07;;;2.10;99.90;;;;;;5053148;28;20235;-64
2023/01/28 07:09:31;;;;;;;9.80;9.00;;;2.00;99.40;;;;;;5068728;28;20186;-64
2023/01/28 07:11:56;;;;;;;8.43;8.03;;;2.00;98.10;;;;;;5073259;28;20174;-64
2023/01/28 07:14:22;;;;;;;9.50;9.00;;;2.00;91.40;;;;;;5058827;28;20207;-63
2023/01/28 07:16:47;;;;;;;9.93;9.00;;;1.90;92.00;;;;;;5053106;28;20199;-64
2023/01/28 07:19:13;;;;;;;9.23;8.33;;;1.90;94.00;;;;;;5064630;28;20178;-64
2023/01/28 07:21:38;;;;;;;8.47;7.87;;;1.90;78.30;;;;;;5070225;28;20193;-64
2023/01/28 07:24:05;;;;;;;9.50;8.83;;;1.80;79.60;;;;;;5053110;28;20224;-64
2023/01/28 07:26:30;;;;;;;7.93;7.53;;;1.80;79.50;;;;;;5053006;28;20197;-64
2023/01/28 07:28:56;;;;;;;9.70;8.90;;;1.90;84.30;;;;;;5053643;28;20175;-63
2023/01/28 07:31:22;;;;;;;7.97;7.43;;;1.90;84.00;;;;;;5052439;28;20260;-64
2023/01/28 07:33:47;;;;;;;10.03;9.10;;;1.90;80.00;;;;;;5071381;28;20216;-64
2023/01/28 07:36:13;;;;;;;10.73;9.77;;;1.90;62.10;;;;;;5072573;28;20171;-64
2023/01/28 07:38:38;;;;;;;9.33;8.73;;;1.90;56.00;;;;;;5055389;28;20656;-63
2023/01/28 07:41:04;;;;;;;9.70;8.90;;;1.90;58.20;;;;;;5052274;28;20173;-64
2023/01/28 07:43:30;;;;;;;9.57;8.80;;;1.90;64.40;;;;;;5067620;28;20720;-64
2023/01/28 07:46:00;;;;;;;8.50;7.87;;;2.00;64.20;;;;;;5073615;28;20555;-65
2023/01/28 07:48:26;;;;;;;9.20;8.40;;;2.00;59.90;;;;;;5079556;28;20206;-65
2023/01/28 07:50:51;;;;;;;9.30;8.73;;;2.00;58.80;;;;;;5082042;28;20202;-65
2023/01/28 07:53:17;;;;;;;9.30;8.60;;;2.00;60.20;;;;;;5062850;28;20672;-62
2023/01/28 07:55:42;;;;;;;9.00;8.30;;;2.00;50.10;;;;;;5052411;28;20274;-64
2023/01/28 07:58:10;;;;;;;11.40;8.17;;;2.00;39.10;;;;;;5062546;28;20194;-64
2023/01/28 08:00:37;;;;;;;9.43;8.67;;;2.00;33.40;;;;;;5071961;28;20287;-64
2023/01/28 08:03:13;;;;;;;10.30;9.53;;;2.00;38.40;;;;;;5063585;28;20189;-64
2023/01/28 08:05:43;;;;;;;10.80;10.00;;;2.10;47.00;;;;;;5052210;28;20655;-63
2023/01/28 08:08:09;;;;;;;9.90;9.10;;;2.00;39.30;;;;;;5059133;28;20198;-63
2023/01/28 08:10:35;;;;;;;10.53;9.57;;;2.10;43.30;;;;;;5051503;28;20217;-63
2023/01/28 08:13:01;;;;;;;10.00;9.00;;;2.10;18.80;;;;;;5059017;28;20543;-64
2023/01/28 08:15:27;;;;;;;10.20;9.30;;;2.10;26.80;;;;;;5068949;28;20181;-63
2023/01/28 08:17:54;;;;;;;9.33;8.73;;;2.10;22.60;;;;;;5052204;28;20185;-63
2023/01/28 08:20:20;;;;;;;9.03;8.53;;;2.10;22.40;;;;;;5051968;28;20185;-64
2023/01/28 08:22:46;;;;;;;8.43;7.93;;;2.10;16.80;;;;;;5051954;28;20605;-62
2023/01/28 08:25:12;;;;;;;14.80;8.63;;;2.00;20.00;;;;;;5051897;28;20249;-64
2023/01/28 08:27:38;;;;;;;8.80;8.20;;;2.00;10.40;;;;;;5051640;28;20202;-64
2023/01/28 08:30:04;;;;;;;9.90;9.10;;;2.10;9.30;;;;;;5051764;28;20197;-64
2023/01/28 08:32:30;;;;;;;10.97;10.10;;;2.10;13.90;;;;;;5051506;28;20175;-64
2023/01/28 08:34:56;;;;;;;9.40;8.70;;;2.10;3.50;;;;;;5054997;28;20197;-64
2023/01/28 08:37:22;;;;;;;9.17;8.47;;;2.20;1.00;;;;;;5071658;28;20197;-64
2023/01/28 08:39:48;;;;;;;9.07;8.23;;;2.10;1.00;;;;;;5069476;28;20190;-63
2023/01/28 08:42:14;;;;;;;9.03;8.33;;;2.20;1.00;;;;;;5048550;28;20220;-63
2023/01/28 08:44:39;;;;;;;9.57;8.87;;;2.20;1.00;;;;;;5063999;28;20652;-62
2023/01/28 08:47:05;;;;;;;8.70;8.10;;;2.20;1.00;;;;;;5071566;28;20197;-63
2023/01/28 08:49:31;;;;;;;9.73;9.00;;;2.30;1.00;;;;;;5059269;28;20228;-62
2023/01/28 08:51:56;;;;;;;9.00;8.23;;;2.30;1.00;;;;;;5051503;28;20308;-64
2023/01/28 08:54:22;;;;;;;8.53;8.03;;;2.20;1.00;;;;;;5060268;28;20209;-64
2023/01/28 08:56:48;;;;;;;9.83;8.83;;;2.20;1.00;;;;;;5064692;28;20746;-64
2023/01/28 08:59:14;;;;;;;9.43;8.70;;;2.20;1.00;;;;;;5062449;28;20547;-64
2023/01/28 09:01:40;;;;;;;8.57;7.87;;;2.30;1.00;;;;;;5051064;28;20167;-63
2023/01/28 09:04:06;;;;;;;8.70;8.03;;;2.30;1.00;;;;;;5051244;28;20178;-63
2023/01/28 09:06:31;;;;;;;9.00;8.13;;;2.30;1.00;;;;;;5051101;28;20202;-64
2023/01/28 09:08:58;;;;;;;7.70;7.20;;;2.30;1.00;;;;;;5051393;28;20175;-63
2023/01/28 09:11:24;;;;;;;9.07;8.27;;;2.30;1.00;;;;;;5050662;28;20175;-64
2023/01/28 09:13:49;;;;;;;7.90;7.30;;;2.30;1.00;;;;;;5049502;28;20213;-64
2023/01/28 09:16:15;;;;;;;9.90;8.97;;;2.40;1.00;;;;;;5051335;28;20575;-64
2023/01/28 09:18:40;;;;;;;8.30;7.70;;;2.40;1.00;;;;;;5050286;28;20190;-64
2023/01/28 09:21:07;;;;;;;8.00;7.50;;;2.40;1.00;;;;;;5051011;28;20253;-64
2023/01/28 09:23:37;;;;;;;9.53;8.93;;;2.40;1.00;;;;;;5066791;28;20186;-63
2023/01/28 09:26:03;;;;;;;8.93;8.33;;;2.40;1.00;;;;;;5071240;28;20215;-63
2023/01/28 09:28:30;;;;;;;9.67;8.83;;;2.50;1.00;;;;;;5057324;28;20217;-64
2023/01/28 09:31:11;;;;;;;8.40;7.80;;;2.60;1.00;;;;;;5063292;28;20185;-64
2023/01/28 09:33:38;;;;;;;8.13;7.53;;;2.60;1.00;;;;;;5050368;28;20260;-64
2023/01/28 09:36:07;;;;;;;8.53;7.83;;;2.60;1.00;;;;;;5049734;28;20175;-64
2023/01/28 09:38:35;;;;;;;8.30;7.70;;;2.60;1.00;;;;;;5050873;28;20258;-65
2023/01/28 09:41:11;;;;;;;10.00;9.20;;;2.70;1.00;;;;;;5081987;28;20178;-64
2023/01/28 09:43:58;;;;;;;8.53;7.80;;;2.80;1.00;;;;;;5051062;28;20194;-64
2023/01/28 09:46:30;;;;;;;9.67;9.00;;;2.90;1.00;;;;;;5054163;28;20179;-64
2023/01/28 09:48:57;;;;;;;8.87;8.27;;;2.80;1.00;;;;;;5071264;28;20640;-64
2023/01/28 09:51:35;;;;;;;8.90;8.10;;;2.70;1.00;;;;;;5067445;28;20620;-64
2023/01/28 09:54:40;;;;;;;8.17;7.67;;;2.70;1.00;;;;;;5050946;28;20727;-64
2023/01/28 09:57:30;;;;;;;9.53;8.73;;;2.70;1.00;;;;;;5058689;28;20285;-64
2023/01/28 09:59:57;;;;;;;8.70;8.00;;;2.80;1.00;;;;;;5070710;28;20159;-64
2023/01/28 10:02:48;;;;;;;8.47;7.83;;;2.90;1.00;;;;;;5060903;28;20179;-64
2023/01/28 10:05:47;;;;;;;9.20;8.50;;;2.90;1.00;;;;;;5050972;28;20267;-64
2023/01/28 10:08:21;;;;;;;8.73;8.03;;;2.90;1.00;;;;;;5066371;28;20221;-64
2023/01/28 10:11:01;;;;;;;10.80;9.87;;;2.80;1.00;;;;;;5069267;28;20184;-64
2023/01/28 10:13:52;;;;;;;9.83;9.03;;;2.80;1.00;;;;;;5056123;28;20201;-64
2023/01/28 10:16:33;;;;;;;8.27;7.73;;;2.80;1.00;;;;;;5054298;28;20174;-64
2023/01/28 10:19:06;;;;;;;9.40;8.43;;;2.80;1.00;;;;;;5054351;28;20247;-64
2023/01/28 10:21:44;;;;;;;8.33;7.73;;;2.80;1.00;;;;;;5055199;28;20187;-64
2023/01/28 10:24:21;;;;;;;8.70;8.10;;;2.80;1.00;;;;;;5054211;28;20170;-64
2023/01/28 10:26:47;;;;;;;8.47;7.90;;;2.80;1.00;;;;;;5054145;28;20190;-63
2023/01/28 10:29:17;;;;;;;8.77;8.07;;;2.80;1.00;;;;;;5052539;28;20198;-64
2023/01/28 10:31:53;;;;;;;8.30;7.87;;;2.90;99.90;;;;;;5034218;28;20213;-64
2023/01/28 10:34:20;;;;;;;8.67;8.00;;;2.80;99.90;;;;;;5034167;28;20198;-64
2023/01/28 10:36:46;;;;;;;8.93;8.23;;;2.90;99.90;;;;;;5054931;28;20198;-64
2023/01/28 10:39:20;;;;;;;8.97;8.37;;;3.00;1.00;;;;;;5062459;28;20189;-65
2023/01/28 10:41:45;;;;;;;10.43;9.80;;;3.20;99.90;;;;;;5073153;28;20170;-64
2023/01/28 10:44:30;;;;;;;10.63;9.70;;;3.30;99.90;;;;;;5073457;28;20671;-64
2023/01/28 10:47:00;;;;;;;11.27;10.20;;;3.30;1.00;;;;;;5078064;28;20336;-64
2023/01/28 10:49:28;;;;;;;9.73;9.13;;;3.30;99.90;;;;;;5070012;28;20198;-64
2023/01/28 10:51:53;;;;;;;8.93;8.33;;;3.00;45.30;;;;;;5053715;28;20194;-64
2023/01/28 10:54:27;;;;;;;8.33;7.63;;;2.80;34.90;;;;;;5054810;28;20206;-62
2023/01/28 10:56:59;;;;;;;9.83;8.77;;;2.80;1.00;;;;;;5053355;28;20206;-63
2023/01/28 10:59:35;;;;;;;10.50;9.57;;;2.90;99.90;;;;;;5069189;28;20178;-63
2023/01/28 11:02:04;;;;;;;8.60;7.90;;;3.00;1.00;;;;;;5072061;28;20158;-63
2023/01/28 11:04:32;;;;;;;10.73;8.27;;;3.00;99.90;;;;;;5055126;28;20179;-64
2023/01/28 11:07:04;;;;;;;9.40;8.53;;;2.90;1.00;;;;;;5053387;28;20281;-63
2023/01/28 11:09:35;;;;;;;8.40;7.77;;;2.80;1.00;;;;;;5070075;28;20312;-64
2023/01/28 11:12:11;;;;;;;7.93;7.43;;;2.80;1.00;;;;;;5054532;28;20183;-63
2023/01/28 11:14:37;;;;;;;12.47;9.00;;;2.80;1.00;;;;;;5070429;28;20292;-63
2023/01/28 11:17:03;;;;;;;10.07;9.27;;;3.00;1.00;;;;;;5073134;28;20320;-64
2023/01/28 11:19:34;;;;;;;8.60;8.00;;;3.00;1.00;;;;;;5057008;28;20182;-64
2023/01/28 11:21:59;;;;;;;9.57;8.87;;;3.00;1.00;;;;;;5053235;28;20201;-64
2023/01/28 11:24:29;;;;;;;8.27;7.57;;;3.00;1.00;;;;;;5067039;28;20178;-64
2023/01/28 11:26:57;;;;;;;9.97;9.13;;;3.10;1.00;;;;;;5072842;28;20229;-64
2023/01/28 11:29:32;;;;;;;8.93;8.37;;;3.10;1.00;;;;;;5059231;28;20222;-64
2023/01/28 11:31:59;;;;;;;8.87;8.20;;;3.10;1.00;;;;;;5062614;28;20184;-64
2023/01/28 11:34:34;;;;;;;8.77;8.17;;;3.10;1.00;;;;;;5072310;28;20434;-64
2023/01/28 11:37:13;;;;;;;9.27;8.37;;;3.10;1.00;;;;;;5061093;28;20233;-64
2023/01/28 11:39:38;;;;;;;8.70;8.03;;;3.10;1.00;;;;;;5072460;28;20534;-64
2023/01/28 11:42:17;;;;;;;8.57;7.93;;;3.20;1.00;;;;;;5061456;28;20218;-64
2023/01/28 11:44:44;;;;;;;8.53;7.93;;;3.20;1.00;;;;;;5052691;28;20644;-64
2023/01/28 11:47:29;;;;;;;7.93;7.47;;;3.20;1.00;;;;;;5061861;28;20202;-64
2023/01/28 11:49:57;;;;;;;12.07;8.53;;;3.10;1.00;;;;;;5072325;28;20205;-64
2023/01/28 11:52:31;;;;;;;8.67;7.83;;;3.00;1.00;;;;;;5061515;28;20194;-64
2023/01/28 11:55:19;;;;;;;8.73;8.03;;;2.90;1.00;;;;;;5052648;28;20203;-64
2023/01/28 11:58:02;;;;;;;8.37;7.80;;;2.90;1.00;;;;;;5053607;28;20202;-63
2023/01/28 12:00:36;;;;;;;8.40;7.87;;;2.90;1.00;;;;;;5052109;28;20162;-64
2023/01/28 12:03:11;;;;;;;8.60;8.00;;;3.00;1.00;;;;;;5066731;28;20182;-64
2023/01/28 12:05:56;;;;;;;9.87;9.07;;;3.00;1.00;;;;;;5072239;28;20173;-64
2023/01/28 12:08:42;;;;;;;8.83;8.33;;;3.20;1.00;;;;;;5053352;28;20198;-63
2023/01/28 12:14:33;;;;;;;9.50;8.80;;;3.30;1.00;;;;;;5032217;28;20203;-64
2023/01/28 12:17:24;;;;;;;10.43;9.83;;;3.40;1.00;;;;;;5040659;28;20198;-64
2023/01/28 12:20:26;;;;;;;10.73;10.07;;;3.30;1.00;;;;;;5071820;28;20660;-63
2023/01/28 12:22:59;;;;;;;10.20;9.50;;;3.20;1.00;;;;;;5055311;28;20257;-65
2023/01/28 12:25:34;;;;;;;8.27;7.77;;;3.20;1.00;;;;;;5052066;28;20177;-65
2023/01/28 12:28:31;;;;;;;9.83;9.10;;;3.20;1.00;;;;;;5051929;28;20230;-64
2023/01/28 12:31:30;;;;;;;9.00;8.40;;;3.20;1.00;;;;;;5052060;28;20187;-64
2023/01/28 12:34:22;;;;;;;9.77;9.10;;;3.20;1.00;;;;;;5051958;28;20202;-64
2023/01/28 12:37:14;;;;;;;9.60;8.80;;;3.20;1.00;;;;;;5061444;28;20194;-64
2023/01/28 12:40:07;;;;;;;8.73;8.13;;;3.10;1.00;;;;;;5069573;28;20537;-65
2023/01/28 12:42:43;;;;;;;9.83;8.93;;;3.10;1.00;;;;;;5051894;28;20170;-64
2023/01/28 12:45:39;;;;;;;10.67;9.77;;;3.10;1.00;;;;;;5051719;28;20189;-64
2023/01/28 12:48:10;;;;;;;10.60;9.87;;;3.20;1.00;;;;;;5046897;28;20298;-64
2023/01/28 12:50:45;;;;;;;11.77;10.97;;;3.30;1.00;;;;;;5067089;28;20178;-64
2023/01/28 12:53:38;;;;;;;13.37;12.07;;;3.40;1.00;;;;;;5071649;28;20197;-65
2023/01/28 12:56:14;;;;;;;11.33;10.43;;;3.50;1.00;;;;;;5051910;28;20252;-64
2023/01/28 12:59:15;;;;;;;12.73;11.77;;;3.40;1.00;;;;;;5051590;28;20162;-64
2023/01/28 13:01:50;;;;;;;12.43;11.57;;;3.50;1.00;;;;;;5031289;28;20190;-64
2023/01/28 13:04:28;;;;;;;11.80;10.93;;;3.60;1.00;;;;;;5039494;28;20185;-65
2023/01/28 13:07:03;;;;;;;12.00;11.17;;;3.60;1.00;;;;;;5071126;28;20209;-65
2023/01/28 13:09:32;;;;;;;11.30;10.50;;;3.60;1.00;;;;;;5071240;28;20205;-64
2023/01/28 13:12:00;;;;;;;13.07;11.87;;;3.60;1.00;;;;;;5062164;28;20206;-64
2023/01/28 13:14:31;;;;;;;12.07;11.10;;;3.60;1.00;;;;;;5051563;28;20607;-64
2023/01/28 13:17:29;;;;;;;11.23;10.23;;;3.70;1.00;;;;;;5050948;28;20659;-64
2023/01/28 13:19:56;;;;;;;11.67;10.67;;;3.80;1.00;;;;;;5050255;28;20203;-64
2023/01/28 13:22:31;;;;;;;11.00;9.90;;;3.90;1.00;;;;;;5051580;28;20190;-64
2023/01/28 13:25:12;;;;;;;9.27;8.60;;;4.10;1.00;;;;;;5051273;28;20193;-64
2023/01/28 13:27:38;;;;;;;9.13;8.53;;;4.40;1.00;;;;;;5051360;28;20201;-64
2023/01/28 13:30:42;;;;;;;8.67;8.13;;;4.60;1.00;;;;;;5050513;28;20175;-64
2023/01/28 13:33:37;;;;;;;9.43;7.77;;;4.60;1.00;;;;;;5028689;28;20210;-64
2023/01/28 13:36:15;;;;;;;8.97;8.37;;;4.80;1.00;;;;;;5051044;28;20186;-64
2023/01/28 13:38:41;;;;;;;8.00;7.50;;;4.90;1.00;;;;;;5051293;28;20178;-63
2023/01/28 13:41:06;;;;;;;8.53;7.80;;;4.80;99.90;;;;;;5050996;28;20174;-64
2023/01/28 13:43:39;;;;;;;9.17;8.43;;;4.90;1.00;;;;;;5052575;28;20550;-64
2023/01/28 13:46:27;;;;;;;8.97;8.23;;;4.70;99.90;;;;;;5059467;28;20560;-63